Stoughstown, Pennsylvania
Current Conditions -  °F | °C
As of 6:53 PM on Wednesday 28 Jan 2015 (Local Time) from KRYT Reporting Station
Clear Clear  
Wind Chill: 19°   Ceiling: Unl
Heat Index: 27°   Visibility: 10mi
Dew Point:   Wind: 7mph
Humidity: 36%   Direction: NA
Pressure: 30.25"   Gusts: NA
Location:  40.0414°N, 77.4967°W
Report Text: KRYT 282353Z AUTO VRB06KT 10SM CLR M03/M16 A3025 RMK AO2 SLP266 T10281161 11011 21039 51019 $
Loading
Personal Weather Stations






























Interactive Weather Map New forecast layout! Learn more

10-Day Weather Forecast

Advertisements
Track Severe Weather on mobile